Time;durP1;ratioP1;P1;durP2;ratioP2;P2;SDS_P1;SDS_P2;PMS_P1;PMS_P2;Temp;Humidity;BMP_temperature;BMP_pressure;BME280_temperature;BME280_humidity;BME280_pressure;Samples;Min_cycle;Max_cycle;Signal;HPM_P1;HPM_P2
2021/07/03 00:00:08;;;;;;;;;;;17.90;88.80;;;;;;5017423;28;20001;-73
2021/07/03 00:02:34;;;;;;;;;;;17.90;88.70;;;;;;5015861;28;20453;-71
2021/07/03 00:04:59;;;;;;;;;;;17.90;89.60;;;;;;5012863;28;19933;-71
2021/07/03 00:07:25;;;;;;;;;;;17.90;88.90;;;;;;5012599;28;19921;-70
2021/07/03 00:09:50;;;;;;;;;;;17.90;89.10;;;;;;5012558;28;19948;-73
2021/07/03 00:12:16;;;;;;;;;;;17.90;88.90;;;;;;5012709;28;20390;-71
2021/07/03 00:14:41;;;;;;;;;;;17.90;88.50;;;;;;5012841;28;19923;-71
2021/07/03 00:17:06;;;;;;;;;;;17.90;89.20;;;;;;5012492;28;19925;-72
2021/07/03 00:19:32;;;;;;;;;;;17.90;89.20;;;;;;5012340;28;20285;-70
2021/07/03 00:21:58;;;;;;;;;;;17.90;89.10;;;;;;5011486;28;19924;-71
2021/07/03 00:24:23;;;;;;;;;;;17.80;89.30;;;;;;5011550;28;19935;-70
2021/07/03 00:26:48;;;;;;;;;;;17.80;88.80;;;;;;5012448;28;20394;-69
2021/07/03 00:29:14;;;;;;;;;;;17.80;89.10;;;;;;5014332;28;19928;-70
2021/07/03 00:31:39;;;;;;;;;;;17.80;89.20;;;;;;5016095;28;19932;-70
2021/07/03 00:34:05;;;;;;;;;;;17.80;89.40;;;;;;5003219;28;19987;-71
2021/07/03 00:36:30;;;;;;;;;;;17.80;89.00;;;;;;4996476;28;19930;-71
2021/07/03 00:38:56;;;;;;;;;;;17.80;89.30;;;;;;4996023;28;20378;-70
2021/07/03 00:41:21;;;;;;;;;;;17.70;88.80;;;;;;4996215;28;19932;-70
2021/07/03 00:43:47;;;;;;;;;;;17.70;89.40;;;;;;4996180;28;19924;-70
2021/07/03 00:46:13;;;;;;;;;;;17.70;89.80;;;;;;4996252;28;19947;-71
2021/07/03 00:48:38;;;;;;;;;;;17.70;89.10;;;;;;4995848;28;19924;-71
2021/07/03 00:51:04;;;;;;;;;;;17.60;89.40;;;;;;4995236;28;19921;-70
2021/07/03 00:53:30;;;;;;;;;;;17.60;89.90;;;;;;4995013;28;20349;-71
2021/07/03 00:55:56;;;;;;;;;;;17.60;89.90;;;;;;4995810;28;19975;-73
2021/07/03 00:58:21;;;;;;;;;;;17.50;90.00;;;;;;4994487;28;19976;-72
2021/07/03 01:00:47;;;;;;;;;;;17.60;89.70;;;;;;4994602;28;20385;-71
2021/07/03 01:03:12;;;;;;;;;;;17.60;89.90;;;;;;4995852;28;20464;-71
2021/07/03 01:05:38;;;;;;;;;;;17.60;89.60;;;;;;4996636;28;19970;-70
2021/07/03 01:08:03;;;;;;;;;;;17.60;89.50;;;;;;4995691;28;19978;-72
2021/07/03 01:10:30;;;;;;;;;;;17.60;89.40;;;;;;4995960;28;19934;-71
2021/07/03 01:12:56;;;;;;;;;;;17.60;89.90;;;;;;4995882;28;19956;-71
2021/07/03 01:15:21;;;;;;;;;;;17.60;90.50;;;;;;4995930;28;19963;-70
2021/07/03 01:17:47;;;;;;;;;;;17.50;89.70;;;;;;4995581;28;19921;-70
2021/07/03 01:20:13;;;;;;;;;;;17.50;90.30;;;;;;4995455;28;19943;-71
2021/07/03 01:22:39;;;;;;;;;;;17.50;90.60;;;;;;4996077;28;20001;-70
2021/07/03 01:25:05;;;;;;;;;;;17.40;90.10;;;;;;4995739;28;20015;-71
2021/07/03 01:27:31;;;;;;;;;;;17.40;91.00;;;;;;4995754;28;20042;-70
2021/07/03 01:29:57;;;;;;;;;;;17.40;90.30;;;;;;4995328;28;19923;-72
2021/07/03 01:32:22;;;;;;;;;;;17.50;90.70;;;;;;4995413;28;19921;-72
2021/07/03 01:34:48;;;;;;;;;;;17.50;90.50;;;;;;5013879;28;19927;-72
2021/07/03 01:37:14;;;;;;;;;;;17.50;91.30;;;;;;5014958;28;19927;-70
2021/07/03 01:39:40;;;;;;;;;;;17.40;90.80;;;;;;5014312;28;19947;-71
2021/07/03 01:42:07;;;;;;;;;;;17.40;91.40;;;;;;5013581;28;20301;-71
2021/07/03 01:44:33;;;;;;;;;;;17.30;91.30;;;;;;5014467;28;20287;-70
2021/07/03 01:46:58;;;;;;;;;;;17.30;91.40;;;;;;5014637;28;19930;-71
2021/07/03 01:49:24;;;;;;;;;;;17.40;91.20;;;;;;5013154;28;19923;-71
2021/07/03 01:51:50;;;;;;;;;;;17.50;91.10;;;;;;5013366;28;19997;-70
2021/07/03 01:54:15;;;;;;;;;;;17.50;91.00;;;;;;5013267;28;20034;-70
2021/07/03 01:56:41;;;;;;;;;;;17.50;90.90;;;;;;5014321;28;20038;-71
2021/07/03 01:59:07;;;;;;;;;;;17.50;91.00;;;;;;5014141;28;19976;-72
2021/07/03 02:01:32;;;;;;;;;;;17.50;91.20;;;;;;5013256;28;20006;-71
2021/07/03 02:03:58;;;;;;;;;;;17.50;92.40;;;;;;5014625;28;20024;-72
2021/07/03 02:06:24;;;;;;;;;;;17.40;91.90;;;;;;5014356;28;19926;-72
2021/07/03 02:08:50;;;;;;;;;;;17.40;91.60;;;;;;5013877;28;20358;-71
2021/07/03 02:11:15;;;;;;;;;;;17.40;92.10;;;;;;5014177;28;19923;-71
2021/07/03 02:13:41;;;;;;;;;;;17.50;91.90;;;;;;5014373;28;20300;-70
2021/07/03 02:16:06;;;;;;;;;;;17.40;92.40;;;;;;5014321;28;19924;-70
2021/07/03 02:18:32;;;;;;;;;;;17.40;92.20;;;;;;5014217;28;19932;-71
2021/07/03 02:20:57;;;;;;;;;;;17.40;92.00;;;;;;5013950;28;19993;-71
2021/07/03 02:23:23;;;;;;;;;;;17.30;91.60;;;;;;5014266;28;20010;-71
2021/07/03 02:25:48;;;;;;;;;;;17.30;92.30;;;;;;5014103;28;19923;-71
2021/07/03 02:28:14;;;;;;;;;;;17.30;92.40;;;;;;5014036;28;19928;-71
2021/07/03 02:30:39;;;;;;;;;;;17.30;91.50;;;;;;5013638;28;20338;-71
2021/07/03 02:33:05;;;;;;;;;;;17.30;92.20;;;;;;5009304;28;19924;-71
2021/07/03 02:35:30;;;;;;;;;;;17.30;92.60;;;;;;4994740;28;19924;-71
2021/07/03 02:37:56;;;;;;;;;;;17.30;91.80;;;;;;4994482;28;19930;-71
2021/07/03 02:40:21;;;;;;;;;;;17.30;92.20;;;;;;4993971;28;19943;-71
2021/07/03 02:42:47;;;;;;;;;;;17.40;92.00;;;;;;4994293;28;19932;-71
2021/07/03 02:45:13;;;;;;;;;;;17.40;91.80;;;;;;4993843;28;20402;-71
2021/07/03 02:47:38;;;;;;;;;;;17.40;91.90;;;;;;4993983;28;19925;-72
2021/07/03 02:50:05;;;;;;;;;;;17.40;91.80;;;;;;4993662;28;19921;-72
2021/07/03 02:52:31;;;;;;;;;;;17.50;91.80;;;;;;4992091;28;19934;-71
2021/07/03 02:54:56;;;;;;;;;;;17.50;91.80;;;;;;4993866;28;20309;-70
2021/07/03 02:57:22;;;;;;;;;;;17.50;92.00;;;;;;4993554;28;19964;-72
2021/07/03 02:59:47;;;;;;;;;;;17.40;91.60;;;;;;4993418;28;19976;-71
2021/07/03 03:02:13;;;;;;;;;;;17.50;92.20;;;;;;4993638;28;20324;-71
2021/07/03 03:04:39;;;;;;;;;;;17.50;91.60;;;;;;4992480;28;20033;-71
2021/07/03 03:07:05;;;;;;;;;;;17.50;91.80;;;;;;4993733;28;19922;-71
2021/07/03 03:09:30;;;;;;;;;;;17.40;92.50;;;;;;4991911;28;20022;-71
2021/07/03 03:11:56;;;;;;;;;;;17.40;91.90;;;;;;4993469;28;20386;-71
2021/07/03 03:14:22;;;;;;;;;;;17.50;92.20;;;;;;4993522;28;19922;-71
2021/07/03 03:16:47;;;;;;;;;;;17.40;92.60;;;;;;4992515;28;20028;-70
2021/07/03 03:19:13;;;;;;;;;;;17.40;92.50;;;;;;4993300;28;20227;-73
2021/07/03 03:21:38;;;;;;;;;;;17.40;92.80;;;;;;4993092;28;20408;-71
2021/07/03 03:24:04;;;;;;;;;;;17.30;92.90;;;;;;4993594;28;19972;-71
2021/07/03 03:26:30;;;;;;;;;;;17.30;93.50;;;;;;4993681;28;19927;-72
2021/07/03 03:28:55;;;;;;;;;;;17.20;92.40;;;;;;4993268;28;19922;-71
2021/07/03 03:31:21;;;;;;;;;;;17.30;92.90;;;;;;4993293;28;19927;-71
2021/07/03 03:33:46;;;;;;;;;;;17.30;93.40;;;;;;5003581;28;19942;-72
2021/07/03 03:36:12;;;;;;;;;;;17.30;92.50;;;;;;5013030;28;19941;-71
2021/07/03 03:38:37;;;;;;;;;;;17.30;92.90;;;;;;5012897;28;19920;-70
2021/07/03 03:41:03;;;;;;;;;;;17.40;93.50;;;;;;5012702;28;19949;-70
2021/07/03 03:43:28;;;;;;;;;;;17.30;93.20;;;;;;5011692;28;19969;-70
2021/07/03 03:45:54;;;;;;;;;;;17.30;93.60;;;;;;5011916;28;19928;-71
2021/07/03 03:48:19;;;;;;;;;;;17.20;93.30;;;;;;5013249;28;19926;-70
2021/07/03 03:50:44;;;;;;;;;;;17.20;92.90;;;;;;5012662;28;19978;-73
2021/07/03 03:53:10;;;;;;;;;;;17.20;93.30;;;;;;5012526;28;20357;-71
2021/07/03 03:55:36;;;;;;;;;;;17.30;92.90;;;;;;5012811;28;19924;-71
2021/07/03 03:58:01;;;;;;;;;;;17.30;93.20;;;;;;5012292;28;20007;-69
2021/07/03 04:00:27;;;;;;;;;;;17.20;93.50;;;;;;5012320;28;20013;-70
2021/07/03 04:02:52;;;;;;;;;;;17.20;92.90;;;;;;5013009;28;19932;-70
2021/07/03 04:05:18;;;;;;;;;;;17.20;93.40;;;;;;5016603;28;19922;-71
2021/07/03 04:07:43;;;;;;;;;;;17.20;93.70;;;;;;5015498;28;19922;-71
2021/07/03 04:10:09;;;;;;;;;;;17.20;93.70;;;;;;5016261;28;19927;-71
2021/07/03 04:12:34;;;;;;;;;;;17.20;93.60;;;;;;5016687;28;19936;-71
2021/07/03 04:15:00;;;;;;;;;;;17.20;94.00;;;;;;5015252;28;19974;-70
2021/07/03 04:17:26;;;;;;;;;;;17.20;93.80;;;;;;5016514;28;19953;-70
2021/07/03 04:19:51;;;;;;;;;;;17.20;93.30;;;;;;5015933;28;20291;-71
2021/07/03 04:22:17;;;;;;;;;;;17.20;93.50;;;;;;5014977;28;19923;-71
2021/07/03 04:24:42;;;;;;;;;;;17.20;93.80;;;;;;5016227;28;19928;-70
2021/07/03 04:27:08;;;;;;;;;;;17.20;94.20;;;;;;5016547;28;20009;-72
2021/07/03 04:29:33;;;;;;;;;;;17.20;94.10;;;;;;5016076;28;20406;-69
2021/07/03 04:31:59;;;;;;;;;;;17.20;94.40;;;;;;5015952;28;19924;-70
2021/07/03 04:34:25;;;;;;;;;;;17.20;93.90;;;;;;5000328;28;20023;-71
2021/07/03 04:36:50;;;;;;;;;;;17.20;94.50;;;;;;4996566;28;19922;-71
2021/07/03 04:39:16;;;;;;;;;;;17.20;93.80;;;;;;4996355;28;20035;-71
2021/07/03 04:41:41;;;;;;;;;;;17.20;94.20;;;;;;4995044;28;20358;-72
2021/07/03 04:44:07;;;;;;;;;;;17.20;94.40;;;;;;4996249;28;19923;-71
2021/07/03 04:46:33;;;;;;;;;;;17.20;93.90;;;;;;4995207;28;19925;-73
2021/07/03 04:48:58;;;;;;;;;;;17.20;94.70;;;;;;4996192;28;19985;-71
2021/07/03 04:51:24;;;;;;;;;;;17.20;94.60;;;;;;4996063;28;19924;-71
2021/07/03 04:53:49;;;;;;;;;;;17.20;94.80;;;;;;4996139;28;19942;-70
2021/07/03 04:56:17;;;;;;;;;;;17.20;94.50;;;;;;4995794;28;19956;-71
2021/07/03 04:58:42;;;;;;;;;;;17.20;94.60;;;;;;4996147;28;20020;-71
2021/07/03 05:01:08;;;;;;;;;;;17.20;93.90;;;;;;4994643;28;20036;-73
2021/07/03 05:03:33;;;;;;;;;;;17.30;94.20;;;;;;4995792;28;20008;-71
2021/07/03 05:05:59;;;;;;;;;;;17.20;94.50;;;;;;4995892;28;20380;-71
2021/07/03 05:08:24;;;;;;;;;;;17.20;94.80;;;;;;4996556;28;19931;-70
2021/07/03 05:10:50;;;;;;;;;;;17.30;94.40;;;;;;4999814;28;20404;-70
2021/07/03 05:13:15;;;;;;;;;;;17.20;94.60;;;;;;4998479;28;19967;-72
2021/07/03 05:15:41;;;;;;;;;;;17.20;95.10;;;;;;4994927;28;19929;-70
2021/07/03 05:18:06;;;;;;;;;;;17.20;94.90;;;;;;4995775;28;20431;-71
2021/07/03 05:20:32;;;;;;;;;;;17.20;95.20;;;;;;4995207;28;19940;-71
2021/07/03 05:22:57;;;;;;;;;;;17.20;95.60;;;;;;4995587;28;19933;-70
2021/07/03 05:25:23;;;;;;;;;;;17.20;95.90;;;;;;4994277;28;20302;-71
2021/07/03 05:27:48;;;;;;;;;;;17.20;95.80;;;;;;4995849;28;19970;-70
2021/07/03 05:30:14;;;;;;;;;;;17.20;96.10;;;;;;4995321;28;20381;-70
2021/07/03 05:32:39;;;;;;;;;;;17.30;94.90;;;;;;4996588;28;19927;-70
2021/07/03 05:35:05;;;;;;;;;;;17.40;94.60;;;;;;5015063;28;19923;-71
2021/07/03 05:37:31;;;;;;;;;;;17.50;94.90;;;;;;5015446;28;19926;-71
2021/07/03 05:39:56;;;;;;;;;;;17.50;95.60;;;;;;5014925;28;19952;-71
2021/07/03 05:42:22;;;;;;;;;;;17.60;95.50;;;;;;5014965;28;20017;-70
2021/07/03 05:44:47;;;;;;;;;;;17.70;94.70;;;;;;5014637;28;19942;-70
2021/07/03 05:47:13;;;;;;;;;;;17.80;94.60;;;;;;5014927;28;19922;-71
2021/07/03 05:49:39;;;;;;;;;;;17.90;94.50;;;;;;5013518;28;19977;-71
2021/07/03 05:52:06;;;;;;;;;;;17.90;93.90;;;;;;5013506;28;19925;-71
2021/07/03 05:54:32;;;;;;;;;;;17.90;94.50;;;;;;5014734;28;20359;-71
2021/07/03 05:56:57;;;;;;;;;;;17.90;94.90;;;;;;5014321;28;19956;-71
2021/07/03 05:59:23;;;;;;;;;;;17.90;94.70;;;;;;5014420;28;20298;-71
2021/07/03 06:01:48;;;;;;;;;;;17.90;94.70;;;;;;5013269;28;19922;-71
2021/07/03 06:04:14;;;;;;;;;;;17.90;94.40;;;;;;5014543;28;19966;-70
2021/07/03 06:06:39;;;;;;;;;;;18.00;94.80;;;;;;5014401;28;20350;-71
2021/07/03 06:09:05;;;;;;;;;;;18.00;95.00;;;;;;5014254;28;19931;-72
2021/07/03 06:11:30;;;;;;;;;;;18.00;95.20;;;;;;5014200;28;19962;-70
2021/07/03 06:13:56;;;;;;;;;;;18.00;95.20;;;;;;5014495;28;20042;-71
2021/07/03 06:16:22;;;;;;;;;;;18.00;94.60;;;;;;5013007;28;19932;-72
2021/07/03 06:18:48;;;;;;;;;;;18.00;94.50;;;;;;5012959;28;20012;-71
2021/07/03 06:21:13;;;;;;;;;;;18.20;94.30;;;;;;5013766;28;19952;-72
2021/07/03 06:23:39;;;;;;;;;;;18.40;95.10;;;;;;5013111;28;20340;-72
2021/07/03 06:26:05;;;;;;;;;;;18.60;94.00;;;;;;5013232;28;19981;-72
2021/07/03 06:28:31;;;;;;;;;;;18.90;93.40;;;;;;5014300;28;19926;-71
2021/07/03 06:30:57;;;;;;;;;;;19.10;93.80;;;;;;5013879;28;20360;-71
2021/07/03 06:33:22;;;;;;;;;;;19.30;92.80;;;;;;5005492;28;19966;-70
2021/07/03 06:35:48;;;;;;;;;;;19.60;92.80;;;;;;4993184;28;19929;-72
2021/07/03 06:38:14;;;;;;;;;;;20.10;91.90;;;;;;4994231;28;20012;-70
2021/07/03 06:40:39;;;;;;;;;;;20.80;91.60;;;;;;4994044;28;19994;-72
2021/07/03 06:43:05;;;;;;;;;;;20.90;90.70;;;;;;4994333;28;20287;-70
2021/07/03 06:45:30;;;;;;;;;;;20.80;91.00;;;;;;4993922;28;19920;-72
2021/07/03 06:47:56;;;;;;;;;;;20.60;91.40;;;;;;4994068;28;19921;-71
2021/07/03 06:50:21;;;;;;;;;;;20.50;91.50;;;;;;4994221;28;19968;-70
2021/07/03 06:52:47;;;;;;;;;;;20.20;91.80;;;;;;4994406;28;19975;-72
2021/07/03 06:55:13;;;;;;;;;;;20.10;92.20;;;;;;4992746;28;19936;-71
2021/07/03 06:57:38;;;;;;;;;;;20.30;92.20;;;;;;4993749;28;19960;-74
2021/07/03 07:00:04;;;;;;;;;;;20.80;91.50;;;;;;4993716;28;19952;-70
2021/07/03 07:02:30;;;;;;;;;;;21.30;91.00;;;;;;4993934;28;19930;-71
2021/07/03 07:04:55;;;;;;;;;;;21.50;90.50;;;;;;4992588;28;20014;-72
2021/07/03 07:07:21;;;;;;;;;;;21.50;90.60;;;;;;4994007;28;20013;-71
2021/07/03 07:09:46;;;;;;;;;;;21.70;90.40;;;;;;4993909;28;20368;-73
2021/07/03 07:12:12;;;;;;;;;;;22.10;89.50;;;;;;4993736;28;19987;-71
2021/07/03 07:14:37;;;;;;;;;;;22.40;87.90;;;;;;4993630;28;19922;-71
2021/07/03 07:17:03;;;;;;;;;;;22.20;87.00;;;;;;4993463;28;19929;-70
2021/07/03 07:19:29;;;;;;;;;;;22.00;89.20;;;;;;4993501;28;19927;-71
2021/07/03 07:21:54;;;;;;;;;;;22.00;89.40;;;;;;4993624;28;20397;-72
2021/07/03 07:24:20;;;;;;;;;;;21.80;89.00;;;;;;4993528;28;19976;-71
2021/07/03 07:26:46;;;;;;;;;;;21.60;90.20;;;;;;4993405;28;19927;-71
2021/07/03 07:29:11;;;;;;;;;;;21.60;90.20;;;;;;4993366;28;19929;-71
2021/07/03 07:31:37;;;;;;;;;;;21.40;90.40;;;;;;4992247;28;20482;-72
2021/07/03 07:34:02;;;;;;;;;;;21.70;90.20;;;;;;5005835;28;19929;-70
2021/07/03 07:36:28;;;;;;;;;;;21.80;90.00;;;;;;5012783;28;19924;-73
2021/07/03 07:38:53;;;;;;;;;;;21.60;90.00;;;;;;5012657;28;19922;-72
2021/07/03 07:41:19;;;;;;;;;;;21.40;90.30;;;;;;5012630;28;19945;-71
2021/07/03 07:43:44;;;;;;;;;;;21.30;90.60;;;;;;5013963;28;20064;-70
2021/07/03 07:46:10;;;;;;;;;;;21.10;90.70;;;;;;5012464;28;19982;-72
2021/07/03 07:48:35;;;;;;;;;;;21.00;91.00;;;;;;5011866;28;19929;-71
2021/07/03 07:51:01;;;;;;;;;;;21.00;90.80;;;;;;5012674;28;19923;-71
2021/07/03 07:53:27;;;;;;;;;;;20.90;90.40;;;;;;5013308;28;19941;-70
2021/07/03 07:55:53;;;;;;;;;;;20.80;91.10;;;;;;5012392;28;19920;-72
2021/07/03 07:58:18;;;;;;;;;;;20.70;90.80;;;;;;5012630;28;19964;-72
2021/07/03 08:00:44;;;;;;;;;;;20.70;91.10;;;;;;5012390;28;19975;-71
2021/07/03 08:03:09;;;;;;;;;;;20.80;90.70;;;;;;5011838;28;20385;-73
2021/07/03 08:05:35;;;;;;;;;;;20.70;90.50;;;;;;5012902;28;19976;-72
2021/07/03 08:08:01;;;;;;;;;;;20.70;90.70;;;;;;5012380;28;20007;-71
2021/07/03 08:10:30;;;;;;;;;;;20.60;90.70;;;;;;5012422;28;19973;-71
2021/07/03 08:12:56;;;;;;;;;;;20.70;90.80;;;;;;5013141;28;20326;-70
2021/07/03 08:15:21;;;;;;;;;;;20.50;90.50;;;;;;5012776;28;20040;-71
2021/07/03 08:17:47;;;;;;;;;;;20.40;91.10;;;;;;5011391;28;20445;-72
2021/07/03 08:20:14;;;;;;;;;;;20.40;91.10;;;;;;5013058;28;19944;-71
2021/07/03 08:22:39;;;;;;;;;;;20.40;91.00;;;;;;5013590;28;19932;-71
2021/07/03 08:25:05;;;;;;;;;;;20.50;91.00;;;;;;5013453;28;20460;-70
2021/07/03 08:27:31;;;;;;;;;;;20.60;90.80;;;;;;5011986;28;19930;-71
2021/07/03 08:29:56;;;;;;;;;;;20.80;90.40;;;;;;5010810;28;19922;-70
2021/07/03 08:32:22;;;;;;;;;;;20.90;90.10;;;;;;5011223;28;19920;-70
2021/07/03 08:34:48;;;;;;;;;;;20.90;90.10;;;;;;4993750;28;19927;-70
2021/07/03 08:37:13;;;;;;;;;;;20.90;90.10;;;;;;4992856;28;19924;-72
2021/07/03 08:39:39;;;;;;;;;;;20.80;90.10;;;;;;4992763;28;20292;-71
2021/07/03 08:42:04;;;;;;;;;;;20.90;90.20;;;;;;4992576;28;20005;-71
2021/07/03 08:44:30;;;;;;;;;;;20.90;90.00;;;;;;4993056;28;19977;-71
2021/07/03 08:46:55;;;;;;;;;;;21.00;89.90;;;;;;4991883;28;19958;-71
2021/07/03 08:49:21;;;;;;;;;;;21.10;89.30;;;;;;4992121;28;19928;-71
2021/07/03 08:51:46;;;;;;;;;;;21.30;88.40;;;;;;4994881;28;19931;-71
2021/07/03 08:54:13;;;;;;;;;;;21.30;87.60;;;;;;4994629;28;20030;-72
2021/07/03 08:56:39;;;;;;;;;;;21.50;88.10;;;;;;4996452;28;20477;-70
2021/07/03 08:59:19;;;;;;;;;;;21.50;86.00;;;;;;4996655;28;19923;-71
2021/07/03 09:01:48;;;;;;;;;;;21.50;87.00;;;;;;4995645;28;19988;-71
2021/07/03 09:04:13;;;;;;;;;;;21.50;86.70;;;;;;4996611;28;20343;-71
2021/07/03 09:06:39;;;;;;;;;;;22.10;85.10;;;;;;4995965;28;19932;-72
2021/07/03 09:09:04;;;;;;;;;;;22.50;82.90;;;;;;4996242;28;20015;-71
2021/07/03 09:11:31;;;;;;;;;;;22.60;81.90;;;;;;4995284;28;19934;-72
2021/07/03 09:13:57;;;;;;;;;;;22.70;83.50;;;;;;4995019;28;20402;-71
2021/07/03 09:16:32;;;;;;;;;;;22.80;81.50;;;;;;4995868;28;19928;-70
2021/07/03 09:18:58;;;;;;;;;;;22.60;82.70;;;;;;4995801;28;19954;-72
2021/07/03 09:21:24;;;;;;;;;;;22.40;82.10;;;;;;4996547;28;19959;-71
2021/07/03 09:23:50;;;;;;;;;;;22.20;84.20;;;;;;4995095;28;19926;-71
2021/07/03 09:26:16;;;;;;;;;;;22.20;84.10;;;;;;4994390;28;19978;-71
2021/07/03 09:28:42;;;;;;;;;;;22.20;84.20;;;;;;4995829;28;19925;-70
2021/07/03 09:31:08;;;;;;;;;;;22.30;83.40;;;;;;4995761;28;19925;-70
2021/07/03 09:33:37;;;;;;;;;;;22.40;81.70;;;;;;5004080;28;19933;-71
2021/07/03 09:36:06;;;;;;;;;;;22.70;83.00;;;;;;5014785;28;20299;-71
2021/07/03 09:38:41;;;;;;;;;;;22.70;81.00;;;;;;5013762;28;19928;-70
2021/07/03 09:41:12;;;;;;;;;;;22.50;81.50;;;;;;5013862;28;19999;-73
2021/07/03 09:43:41;;;;;;;;;;;22.10;82.70;;;;;;5014066;28;20017;-70
2021/07/03 09:46:06;;;;;;;;;;;21.80;84.30;;;;;;5015154;28;19934;-71
2021/07/03 09:48:32;;;;;;;;;;;21.80;85.20;;;;;;5014601;28;19928;-71
2021/07/03 09:51:06;;;;;;;;;;;22.90;81.60;;;;;;5014806;28;20015;-71
2021/07/03 09:53:32;;;;;;;;;;;23.50;81.20;;;;;;5013856;28;19985;-71
2021/07/03 09:55:57;;;;;;;;;;;23.70;79.80;;;;;;5013235;28;20326;-71
2021/07/03 09:58:23;;;;;;;;;;;23.60;80.40;;;;;;5013429;28;19926;-71
2021/07/03 10:00:48;;;;;;;;;;;23.30;79.70;;;;;;5014330;28;19950;-70
2021/07/03 10:03:13;;;;;;;;;;;22.80;80.60;;;;;;5014689;28;20113;-71
2021/07/03 10:05:39;;;;;;;;;;;22.30;82.20;;;;;;5013229;28;19934;-71
2021/07/03 10:08:06;;;;;;;;;;;22.00;82.20;;;;;;5013117;28;20387;-71
2021/07/03 10:10:32;;;;;;;;;;;21.90;83.60;;;;;;5013260;28;19922;-70
2021/07/03 10:13:06;;;;;;;;;;;22.00;83.10;;;;;;5013381;28;19920;-72
2021/07/03 10:15:32;;;;;;;;;;;22.00;82.40;;;;;;4996989;28;19930;-71
2021/07/03 10:18:07;;;;;;;;;;;22.10;82.20;;;;;;5014352;28;20328;-72
2021/07/03 10:20:33;;;;;;;;;;;22.60;82.10;;;;;;5012680;28;19953;-72
2021/07/03 10:22:59;;;;;;;;;;;22.80;79.90;;;;;;5014296;28;19928;-71
2021/07/03 10:25:31;;;;;;;;;;;22.80;80.60;;;;;;5013052;28;19968;-71
2021/07/03 10:27:58;;;;;;;;;;;23.00;79.00;;;;;;5014006;28;19925;-71
2021/07/03 10:30:30;;;;;;;;;;;23.20;80.10;;;;;;5014295;28;19931;-71
2021/07/03 10:32:56;;;;;;;;;;;23.00;78.70;;;;;;5009067;28;20436;-71
2021/07/03 10:35:22;;;;;;;;;;;22.60;81.00;;;;;;4994533;28;20283;-71
2021/07/03 10:37:48;;;;;;;;;;;22.50;80.30;;;;;;4994534;28;19929;-71
2021/07/03 10:40:16;;;;;;;;;;;22.30;80.30;;;;;;4993134;28;20488;-70
2021/07/03 10:42:42;;;;;;;;;;;22.40;80.40;;;;;;4994205;28;20013;-72
2021/07/03 10:45:08;;;;;;;;;;;22.50;80.00;;;;;;4994212;28;20384;-71
2021/07/03 10:47:33;;;;;;;;;;;22.80;78.90;;;;;;4993918;28;19932;-72
2021/07/03 10:49:59;;;;;;;;;;;23.60;78.90;;;;;;4994078;28;20301;-72
2021/07/03 10:52:24;;;;;;;;;;;24.90;71.80;;;;;;4994088;28;19925;-73
2021/07/03 10:54:50;;;;;;;;;;;26.10;72.50;;;;;;4993057;28;19949;-72
2021/07/03 10:57:26;;;;;;;;;;;26.40;67.20;;;;;;4992389;28;20020;-72
2021/07/03 10:59:58;;;;;;;;;;;26.40;65.30;;;;;;4993829;28;20482;-73
2021/07/03 11:02:28;;;;;;;;;;;25.70;68.50;;;;;;4992809;28;19927;-72
2021/07/03 11:04:54;;;;;;;;;;;25.60;73.30;;;;;;4992861;28;20015;-73
2021/07/03 11:07:20;;;;;;;;;;;25.10;71.30;;;;;;4993901;28;20069;-71
2021/07/03 11:09:46;;;;;;;;;;;24.60;71.90;;;;;;4993285;28;19930;-72
2021/07/03 11:12:11;;;;;;;;;;;24.10;74.80;;;;;;4993511;28;19923;-72
2021/07/03 11:14:46;;;;;;;;;;;23.80;76.00;;;;;;4993989;28;20011;-72
2021/07/03 11:17:13;;;;;;;;;;;23.60;73.80;;;;;;4993587;28;19957;-72
2021/07/03 11:19:38;;;;;;;;;;;23.40;76.20;;;;;;4992239;28;19922;-73
2021/07/03 11:22:07;;;;;;;;;;;23.40;76.60;;;;;;4992325;28;20380;-73
2021/07/03 11:24:58;;;;;;;;;;;23.50;75.30;;;;;;4993824;28;20263;-74
2021/07/03 11:27:33;;;;;;;;;;;23.80;76.50;;;;;;4993036;28;19927;-73
2021/07/03 11:30:00;;;;;;;;;;;24.00;75.40;;;;;;4992275;28;20023;-73
2021/07/03 11:32:25;;;;;;;;;;;24.20;74.10;;;;;;4992063;28;19920;-72
2021/07/03 11:34:55;;;;;;;;;;;24.20;72.60;;;;;;5011578;28;20028;-72
2021/07/03 11:37:39;;;;;;;;;;;23.90;74.70;;;;;;5012779;28;19929;-72
2021/07/03 11:40:06;;;;;;;;;;;23.70;74.70;;;;;;5012926;28;19944;-72
2021/07/03 11:42:32;;;;;;;;;;;23.60;76.00;;;;;;5011415;28;20333;-73
2021/07/03 11:44:58;;;;;;;;;;;23.80;75.00;;;;;;5012950;28;19925;-72
2021/07/03 11:47:43;;;;;;;;;;;23.80;75.30;;;;;;5011494;28;19929;-72
2021/07/03 11:50:26;;;;;;;;;;;23.90;73.90;;;;;;5012623;28;20378;-73
2021/07/03 11:52:56;;;;;;;;;;;23.90;75.30;;;;;;5011321;28;19926;-72
2021/07/03 11:55:31;;;;;;;;;;;23.90;74.80;;;;;;5013009;28;20011;-72
2021/07/03 11:57:56;;;;;;;;;;;23.80;75.10;;;;;;5012212;28;19957;-73
2021/07/03 12:00:23;;;;;;;;;;;23.60;76.00;;;;;;5011481;28;19948;-73
2021/07/03 12:02:48;;;;;;;;;;;23.60;75.00;;;;;;5012791;28;19938;-72
2021/07/03 12:05:14;;;;;;;;;;;23.70;76.80;;;;;;5012848;28;19926;-72
2021/07/03 12:07:40;;;;;;;;;;;23.80;75.30;;;;;;5012444;28;20330;-71
2021/07/03 12:10:06;;;;;;;;;;;23.90;73.80;;;;;;5011426;28;20377;-72
2021/07/03 12:12:32;;;;;;;;;;;23.80;74.60;;;;;;5011446;28;20339;-73
2021/07/03 12:14:58;;;;;;;;;;;23.90;75.70;;;;;;5011555;28;19930;-72
2021/07/03 12:17:24;;;;;;;;;;;24.00;74.50;;;;;;5011356;28;19929;-73
2021/07/03 12:19:49;;;;;;;;;;;24.10;74.40;;;;;;5012295;28;19948;-71
2021/07/03 12:22:15;;;;;;;;;;;24.00;74.30;;;;;;5012436;28;20265;-73
2021/07/03 12:24:40;;;;;;;;;;;23.90;74.70;;;;;;5012681;28;20436;-73
2021/07/03 12:27:06;;;;;;;;;;;23.90;72.40;;;;;;5016258;28;19923;-72
2021/07/03 12:29:32;;;;;;;;;;;23.90;72.50;;;;;;5016176;28;19925;-73
2021/07/03 12:32:08;;;;;;;;;;;23.90;73.60;;;;;;5016076;28;19932;-72
2021/07/03 12:34:37;;;;;;;;;;;24.00;73.90;;;;;;4998281;28;20439;-73
2021/07/03 12:37:09;;;;;;;;;;;23.80;72.10;;;;;;4996550;28;20379;-73
2021/07/03 12:39:34;;;;;;;;;;;23.80;72.30;;;;;;4995192;28;19926;-71
2021/07/03 12:42:04;;;;;;;;;;;23.70;70.80;;;;;;4996529;28;19969;-72
2021/07/03 12:44:31;;;;;;;;;;;23.60;71.50;;;;;;4996488;28;20300;-72
2021/07/03 12:47:00;;;;;;;;;;;23.70;72.60;;;;;;4997977;28;19922;-73
2021/07/03 12:49:39;;;;;;;;;;;23.80;72.30;;;;;;4997528;28;19936;-71
2021/07/03 12:52:05;;;;;;;;;;;23.80;72.00;;;;;;4995098;28;19928;-72
2021/07/03 12:54:31;;;;;;;;;;;23.70;71.20;;;;;;4996480;28;19954;-73
2021/07/03 12:56:56;;;;;;;;;;;23.80;71.60;;;;;;4996028;28;20332;-71
2021/07/03 12:59:54;;;;;;;;;;;23.80;71.90;;;;;;4996076;28;19961;-72
2021/07/03 13:02:20;;;;;;;;;;;23.80;69.60;;;;;;4994801;28;20496;-72
2021/07/03 13:04:47;;;;;;;;;;;23.80;70.10;;;;;;4996476;28;19922;-73
2021/07/03 13:07:19;;;;;;;;;;;23.80;67.10;;;;;;4994864;28;19922;-72
2021/07/03 13:09:45;;;;;;;;;;;23.80;68.00;;;;;;4996008;28;19969;-71
2021/07/03 13:12:11;;;;;;;;;;;23.80;70.50;;;;;;4994675;28;19958;-73
2021/07/03 13:14:36;;;;;;;;;;;24.00;70.00;;;;;;4994823;28;19922;-72
2021/07/03 13:17:02;;;;;;;;;;;24.10;66.80;;;;;;4995913;28;20029;-71
2021/07/03 13:19:27;;;;;;;;;;;24.00;66.10;;;;;;4978144;28;19986;-73
2021/07/03 13:21:53;;;;;;;;;;;23.90;68.90;;;;;;4994523;28;20444;-72
2021/07/03 13:24:18;;;;;;;;;;;23.80;63.30;;;;;;4995758;28;19930;-73
2021/07/03 13:26:44;;;;;;;;;;;23.80;65.50;;;;;;4995701;28;19967;-72
2021/07/03 13:29:09;;;;;;;;;;;23.80;63.80;;;;;;4994336;28;20309;-71
2021/07/03 13:31:35;;;;;;;;;;;23.80;62.30;;;;;;4994424;28;19948;-73
2021/07/03 13:34:00;;;;;;;;;;;23.60;65.30;;;;;;5007592;28;19953;-72
2021/07/03 13:36:26;;;;;;;;;;;23.70;67.40;;;;;;5014626;28;19921;-71
2021/07/03 13:38:51;;;;;;;;;;;23.80;66.50;;;;;;5014852;28;19922;-72
2021/07/03 13:41:17;;;;;;;;;;;24.00;67.30;;;;;;5015082;28;19941;-72
2021/07/03 13:43:42;;;;;;;;;;;24.00;66.30;;;;;;5014760;28;20019;-73
2021/07/03 13:46:09;;;;;;;;;;;24.00;63.80;;;;;;5013847;28;19971;-73
2021/07/03 13:48:34;;;;;;;;;;;23.90;65.00;;;;;;5013596;28;19925;-72
2021/07/03 13:51:00;;;;;;;;;;;23.90;66.20;;;;;;5013601;28;20028;-72
2021/07/03 13:53:25;;;;;;;;;;;23.90;65.00;;;;;;5013401;28;20392;-72
2021/07/03 13:55:51;;;;;;;;;;;23.90;66.30;;;;;;5014495;28;19921;-71
2021/07/03 13:58:17;;;;;;;;;;;24.10;67.90;;;;;;5014614;28;20020;-73
2021/07/03 14:00:42;;;;;;;;;;;24.20;65.30;;;;;;5014426;28;20377;-72
2021/07/03 14:03:08;;;;;;;;;;;24.20;65.90;;;;;;5014340;28;19925;-73
2021/07/03 14:05:33;;;;;;;;;;;24.30;66.90;;;;;;5013464;28;19920;-72
2021/07/03 14:07:59;;;;;;;;;;;24.40;65.00;;;;;;5014322;28;19978;-73
2021/07/03 14:10:24;;;;;;;;;;;24.50;64.40;;;;;;5014359;28;19924;-72